createdAt,value
2019-02-08T00:00:10.090Z,9.28
2019-02-08T00:00:37.387Z,8.98
2019-02-08T00:01:00.772Z,9.03
2019-02-08T00:01:24.452Z,8.75
2019-02-08T00:01:47.208Z,9.15
2019-02-08T00:02:10.139Z,9.10
2019-02-08T00:02:33.069Z,9.73
2019-02-08T00:02:55.896Z,9.80
2019-02-08T00:03:18.685Z,9.20
2019-02-08T00:03:41.813Z,9.13
2019-02-08T00:04:04.547Z,9.63
2019-02-08T00:04:27.455Z,9.45
2019-02-08T00:04:50.382Z,9.85
2019-02-08T00:05:13.255Z,9.68
2019-02-08T00:05:36.173Z,9.98
2019-02-08T00:05:59.091Z,9.65
2019-02-08T00:06:21.963Z,9.55
2019-02-08T00:06:44.732Z,10.10
2019-02-08T00:07:07.507Z,10.05
2019-02-08T00:07:30.723Z,9.48
2019-02-08T00:07:53.573Z,9.38
2019-02-08T00:08:16.408Z,9.55
2019-02-08T00:08:39.244Z,9.98
2019-02-08T00:09:02.043Z,9.73
2019-02-08T00:09:24.930Z,10.08
2019-02-08T00:09:47.801Z,9.60
2019-02-08T00:10:10.588Z,9.73
2019-02-08T00:10:33.448Z,9.55
2019-02-08T00:10:56.658Z,9.66
2019-02-08T00:11:19.580Z,9.48
2019-02-08T00:11:42.490Z,9.83
2019-02-08T00:12:05.337Z,10.00
2019-02-08T00:12:28.528Z,10.13
2019-02-08T00:12:51.487Z,9.85
2019-02-08T00:13:14.280Z,9.78
2019-02-08T00:13:37.027Z,10.00
2019-02-08T00:13:59.877Z,9.53
2019-02-08T00:14:23.109Z,9.73
2019-02-08T00:14:45.909Z,9.70
2019-02-08T00:15:09.947Z,10.32
2019-02-08T00:15:32.813Z,9.60
2019-02-08T00:15:55.957Z,9.43
2019-02-08T00:16:18.856Z,9.70
2019-02-08T00:16:42.508Z,9.33
2019-02-08T00:17:05.242Z,9.68
2019-02-08T00:17:28.107Z,9.60
2019-02-08T00:17:51.348Z,9.33
2019-02-08T00:18:14.428Z,8.90
2019-02-08T00:18:37.152Z,9.23
2019-02-08T00:19:00.447Z,9.90
2019-02-08T00:19:23.296Z,9.40
2019-02-08T00:19:46.370Z,9.08
2019-02-08T00:20:09.231Z,9.38
2019-02-08T00:20:31.981Z,9.25
2019-02-08T00:20:54.849Z,9.65
2019-02-08T00:21:17.753Z,9.58
2019-02-08T00:21:40.706Z,9.80
2019-02-08T00:22:03.540Z,9.10
2019-02-08T00:22:26.695Z,9.35
2019-02-08T00:22:49.609Z,9.63
2019-02-08T00:23:12.408Z,9.20
2019-02-08T00:23:35.938Z,9.30
2019-02-08T00:23:58.749Z,9.58
2019-02-08T00:24:21.505Z,9.25
2019-02-08T00:24:44.876Z,9.44
2019-02-08T00:25:07.811Z,9.05
2019-02-08T00:25:30.612Z,8.95
2019-02-08T00:25:54.650Z,9.58
2019-02-08T00:26:17.471Z,9.48
2019-02-08T00:26:40.310Z,9.38
2019-02-08T00:27:03.551Z,9.20
2019-02-08T00:27:26.376Z,9.33
2019-02-08T00:27:49.306Z,9.40
2019-02-08T00:28:12.592Z,9.70
2019-02-08T00:28:35.390Z,8.90
2019-02-08T00:28:58.270Z,9.15
2019-02-08T00:29:21.917Z,9.10
2019-02-08T00:29:44.715Z,9.30
2019-02-08T00:30:07.680Z,9.35
2019-02-08T00:30:31.333Z,9.30
2019-02-08T00:30:54.146Z,9.35
2019-02-08T00:31:17.057Z,8.65
2019-02-08T00:31:40.176Z,9.08
2019-02-08T00:32:02.913Z,8.85
2019-02-08T00:32:25.869Z,9.20
2019-02-08T00:32:48.813Z,9.10
2019-02-08T00:33:11.709Z,9.18
2019-02-08T00:33:34.596Z,8.83
2019-02-08T00:33:58.065Z,9.13
2019-02-08T00:34:20.876Z,9.00
2019-02-08T00:34:43.698Z,9.23
2019-02-08T00:35:06.988Z,9.03
2019-02-08T00:35:29.828Z,8.63
2019-02-08T00:35:54.530Z,8.50
2019-02-08T00:36:17.016Z,9.08
2019-02-08T00:36:39.814Z,9.13
2019-02-08T00:37:03.029Z,8.75
2019-02-08T00:37:26.467Z,8.80
2019-02-08T00:37:49.381Z,8.58
2019-02-08T00:38:12.227Z,8.60
2019-02-08T00:38:35.334Z,8.60
2019-02-08T00:38:58.129Z,8.20
2019-02-08T00:39:20.908Z,8.85
2019-02-08T00:39:44.400Z,8.78
2019-02-08T00:40:07.264Z,8.55
2019-02-08T00:40:30.168Z,8.58
2019-02-08T00:40:53.528Z,8.73
2019-02-08T00:41:16.330Z,8.10
2019-02-08T00:41:39.212Z,8.08
2019-02-08T00:42:02.688Z,8.43
2019-02-08T00:42:25.556Z,8.28
2019-02-08T00:42:48.348Z,8.53
2019-02-08T00:43:11.848Z,8.55
2019-02-08T00:43:34.690Z,8.95
2019-02-08T00:43:57.648Z,8.60
2019-02-08T00:44:20.769Z,8.60
2019-02-08T00:44:43.528Z,8.75
2019-02-08T00:45:06.681Z,8.95
2019-02-08T00:45:29.987Z,9.03
2019-02-08T00:45:52.848Z,9.05
2019-02-08T00:46:15.566Z,8.95
2019-02-08T00:46:38.750Z,8.80
2019-02-08T00:47:01.515Z,8.65
2019-02-08T00:47:24.379Z,8.88
2019-02-08T00:47:48.023Z,8.73
2019-02-08T00:48:10.769Z,8.90
2019-02-08T00:48:33.629Z,9.08
2019-02-08T00:48:57.489Z,9.00
2019-02-08T00:49:20.452Z,8.48
2019-02-08T00:49:43.228Z,8.63
2019-02-08T00:50:06.608Z,8.98
2019-02-08T00:50:29.428Z,8.80
2019-02-08T00:50:52.288Z,8.85
2019-02-08T00:51:15.819Z,9.08
2019-02-08T00:51:38.689Z,9.20
2019-02-08T00:52:01.468Z,8.60
2019-02-08T00:52:24.488Z,9.15
2019-02-08T00:52:47.697Z,9.03
2019-02-08T00:53:10.775Z,8.68
2019-02-08T00:53:33.807Z,8.58
2019-02-08T00:53:56.638Z,9.23
2019-02-08T00:54:19.528Z,9.35
2019-02-08T00:54:42.976Z,9.73
2019-02-08T00:55:05.848Z,9.70
2019-02-08T00:55:28.625Z,9.15
2019-02-08T00:55:52.128Z,9.40
2019-02-08T00:56:14.989Z,9.65
2019-02-08T00:56:38.308Z,9.50
2019-02-08T00:57:01.937Z,9.43
2019-02-08T00:57:24.929Z,9.75
2019-02-08T00:57:47.829Z,9.75
2019-02-08T00:58:11.529Z,10.10
2019-02-08T00:58:35.288Z,9.35
2019-02-08T00:58:58.218Z,10.13
2019-02-08T00:59:21.584Z,9.55
2019-02-08T00:59:44.368Z,9.53
2019-02-08T01:00:07.229Z,9.15
2019-02-08T01:00:30.532Z,8.65
2019-02-08T01:00:53.469Z,8.53
2019-02-08T01:01:16.317Z,8.68
2019-02-08T01:01:40.030Z,9.10
2019-02-08T01:02:02.749Z,8.50
2019-02-08T01:02:25.667Z,8.30
2019-02-08T01:02:49.137Z,8.63
2019-02-08T01:03:11.948Z,8.75
2019-02-08T01:03:34.852Z,8.70
2019-02-08T01:03:58.569Z,8.63
2019-02-08T01:04:21.409Z,8.18
2019-02-08T01:04:44.228Z,8.33
2019-02-08T01:05:07.838Z,8.10
2019-02-08T01:05:31.268Z,7.78
2019-02-08T01:05:54.148Z,7.85
2019-02-08T01:06:17.527Z,8.15
2019-02-08T01:06:40.896Z,8.00
2019-02-08T01:07:03.717Z,7.55
2019-02-08T01:07:27.808Z,7.22
2019-02-08T01:07:50.588Z,7.28
2019-02-08T01:08:13.548Z,6.95
2019-02-08T01:08:36.710Z,7.16
2019-02-08T01:08:59.548Z,7.20
2019-02-08T01:09:22.430Z,7.28
2019-02-08T01:09:47.447Z,7.25
2019-02-08T01:10:10.747Z,6.90
2019-02-08T01:10:33.612Z,6.90
2019-02-08T01:10:57.309Z,6.67
2019-02-08T01:11:20.470Z,6.60
2019-02-08T01:11:43.629Z,6.70
2019-02-08T01:12:06.468Z,6.62
2019-02-08T01:12:29.270Z,6.60
2019-02-08T01:12:52.208Z,6.50
2019-02-08T01:13:15.729Z,6.20
2019-02-08T01:13:39.188Z,6.35
2019-02-08T01:14:01.933Z,6.55
2019-02-08T01:14:24.869Z,6.33
2019-02-08T01:14:47.731Z,6.53
2019-02-08T01:15:10.649Z,6.00
2019-02-08T01:15:34.048Z,6.08
2019-02-08T01:15:56.989Z,5.90
2019-02-08T01:16:19.829Z,5.97
2019-02-08T01:16:43.051Z,5.85
2019-02-08T01:17:07.528Z,5.90
2019-02-08T01:17:30.531Z,5.75
2019-02-08T01:17:53.552Z,6.08
2019-02-08T01:18:16.567Z,6.03
2019-02-08T01:18:39.469Z,6.40
2019-02-08T01:19:02.323Z,6.12
2019-02-08T01:19:25.869Z,6.00
2019-02-08T01:19:48.789Z,6.20
2019-02-08T01:20:11.709Z,6.53
2019-02-08T01:20:34.589Z,6.25
2019-02-08T01:20:58.089Z,6.00
2019-02-08T01:21:21.128Z,5.67
2019-02-08T01:21:44.191Z,6.37
2019-02-08T01:22:07.108Z,5.65
2019-02-08T01:22:30.309Z,6.05
2019-02-08T01:22:53.009Z,6.30
2019-02-08T01:23:16.489Z,6.78
2019-02-08T01:23:41.191Z,6.12
2019-02-08T01:24:04.369Z,6.22
2019-02-08T01:24:27.150Z,6.47
2019-02-08T01:24:50.109Z,6.40
2019-02-08T01:25:13.028Z,6.60
2019-02-08T01:25:35.829Z,6.40
2019-02-08T01:25:58.709Z,6.20
2019-02-08T01:26:21.569Z,6.60
2019-02-08T01:26:44.549Z,6.50
2019-02-08T01:27:07.769Z,6.53
2019-02-08T01:27:30.729Z,6.85
2019-02-08T01:27:53.588Z,6.97
2019-02-08T01:28:16.350Z,7.17
2019-02-08T01:28:39.309Z,6.72
2019-02-08T01:29:02.050Z,7.28
2019-02-08T01:29:25.069Z,7.47
2019-02-08T01:29:48.030Z,7.33
2019-02-08T01:30:11.009Z,7.05
2019-02-08T01:30:33.930Z,7.53
2019-02-08T01:30:58.050Z,7.75
2019-02-08T01:31:21.408Z,7.87
2019-02-08T01:31:44.389Z,7.90
2019-02-08T01:32:07.569Z,8.10
2019-02-08T01:32:30.509Z,8.38
2019-02-08T01:32:53.828Z,8.83
2019-02-08T01:33:16.609Z,8.30
2019-02-08T01:33:39.629Z,8.65
2019-02-08T01:34:02.511Z,8.58
2019-02-08T01:34:25.428Z,8.18
2019-02-08T01:34:48.409Z,8.35
2019-02-08T01:35:11.228Z,8.70
2019-02-08T01:35:34.128Z,8.03
2019-02-08T01:35:57.248Z,7.65
2019-02-08T01:36:20.329Z,7.12
2019-02-08T01:36:43.287Z,7.35
2019-02-08T01:37:06.149Z,7.70
2019-02-08T01:37:29.649Z,7.45
2019-02-08T01:37:52.489Z,7.55
2019-02-08T01:38:15.610Z,7.22
2019-02-08T01:38:38.369Z,6.92
2019-02-08T01:39:01.590Z,6.78
2019-02-08T01:39:24.549Z,6.53
2019-02-08T01:39:47.328Z,6.60
2019-02-08T01:40:10.294Z,6.80
2019-02-08T01:40:33.354Z,6.45
2019-02-08T01:40:56.149Z,6.42
2019-02-08T01:41:19.110Z,6.35
2019-02-08T01:41:41.909Z,6.58
2019-02-08T01:42:05.053Z,6.72
2019-02-08T01:42:27.969Z,6.80
2019-02-08T01:42:50.989Z,6.70
2019-02-08T01:43:13.889Z,7.08
2019-02-08T01:43:36.790Z,7.28
2019-02-08T01:43:59.669Z,6.90
2019-02-08T01:44:23.809Z,6.50
2019-02-08T01:44:46.709Z,6.33
2019-02-08T01:45:09.569Z,6.53
2019-02-08T01:45:32.494Z,6.58
2019-02-08T01:45:55.448Z,6.70
2019-02-08T01:46:18.556Z,6.78
2019-02-08T01:46:41.468Z,6.67
2019-02-08T01:47:04.447Z,6.65
2019-02-08T01:47:27.328Z,7.20
2019-02-08T01:47:50.367Z,6.80
2019-02-08T01:48:13.768Z,6.60
2019-02-08T01:48:37.190Z,6.87
2019-02-08T01:49:00.008Z,6.60
2019-02-08T01:49:22.859Z,6.70
2019-02-08T01:49:46.369Z,6.80
2019-02-08T01:50:09.729Z,7.45
2019-02-08T01:50:32.628Z,7.25
2019-02-08T01:50:55.791Z,7.60
2019-02-08T01:51:18.615Z,7.25
2019-02-08T01:51:41.569Z,7.55
2019-02-08T01:52:04.408Z,7.90
2019-02-08T01:52:27.329Z,7.90
2019-02-08T01:52:50.330Z,7.92
2019-02-08T01:53:13.330Z,8.00
2019-02-08T01:53:36.129Z,8.80
2019-02-08T01:53:59.308Z,8.78
2019-02-08T01:54:22.528Z,8.60
2019-02-08T01:54:45.529Z,8.58
2019-02-08T01:55:08.388Z,8.60
2019-02-08T01:55:31.236Z,9.60
2019-02-08T01:55:55.107Z,10.23
2019-02-08T01:56:17.988Z,9.75
2019-02-08T01:56:40.889Z,10.03
2019-02-08T01:57:03.609Z,10.25
2019-02-08T01:57:26.467Z,11.40
2019-02-08T01:57:49.428Z,11.85
2019-02-08T01:58:12.732Z,11.97
2019-02-08T01:58:35.709Z,11.60
2019-02-08T01:58:58.569Z,11.38
2019-02-08T01:59:21.740Z,11.75
2019-02-08T01:59:44.609Z,11.75
2019-02-08T02:00:07.509Z,11.35
2019-02-08T02:00:30.390Z,11.15
2019-02-08T02:00:53.309Z,11.50
2019-02-08T02:01:16.147Z,11.40
2019-02-08T02:01:39.129Z,11.30
2019-02-08T02:02:01.884Z,11.57
2019-02-08T02:02:24.708Z,11.80
2019-02-08T02:02:48.064Z,11.55
2019-02-08T02:03:11.091Z,11.80
2019-02-08T02:03:33.987Z,11.05
2019-02-08T02:03:56.953Z,10.40
2019-02-08T02:04:19.928Z,10.23
2019-02-08T02:04:42.888Z,10.05
2019-02-08T02:05:05.761Z,10.00
2019-02-08T02:05:28.589Z,10.08
2019-02-08T02:05:51.549Z,10.43
2019-02-08T02:06:14.390Z,10.53
2019-02-08T02:06:37.208Z,11.20
2019-02-08T02:07:00.208Z,10.95
2019-02-08T02:07:23.008Z,11.45
2019-02-08T02:07:45.909Z,11.08
2019-02-08T02:08:09.668Z,10.82
2019-02-08T02:08:32.812Z,11.30
2019-02-08T02:08:55.668Z,11.43
2019-02-08T02:09:18.628Z,11.25
2019-02-08T02:09:41.409Z,10.85
2019-02-08T02:10:04.128Z,11.48
2019-02-08T02:10:27.568Z,11.50
2019-02-08T02:10:50.369Z,11.63
2019-02-08T02:11:13.109Z,11.30
2019-02-08T02:11:36.010Z,11.22
2019-02-08T02:11:58.933Z,11.48
2019-02-08T02:12:21.709Z,12.05
2019-02-08T02:12:44.529Z,11.40
2019-02-08T02:13:08.851Z,11.43
2019-02-08T02:13:31.689Z,11.43
2019-02-08T02:13:54.551Z,11.18
2019-02-08T02:14:18.069Z,11.43
2019-02-08T02:14:41.037Z,11.45
2019-02-08T02:15:03.768Z,11.60
2019-02-08T02:15:26.668Z,11.30
2019-02-08T02:15:49.569Z,11.50
2019-02-08T02:16:12.448Z,11.70
2019-02-08T02:16:35.708Z,11.15
2019-02-08T02:16:58.569Z,11.80
2019-02-08T02:17:22.168Z,11.73
2019-02-08T02:17:45.128Z,11.65
2019-02-08T02:18:08.457Z,11.90
2019-02-08T02:18:31.261Z,11.95
2019-02-08T02:18:54.148Z,12.05
2019-02-08T02:19:16.951Z,12.50
2019-02-08T02:19:39.828Z,11.88
2019-02-08T02:20:02.611Z,11.60
2019-02-08T02:20:25.738Z,11.30
2019-02-08T02:20:48.608Z,11.15
2019-02-08T02:21:11.488Z,10.70
2019-02-08T02:21:34.438Z,10.98
2019-02-08T02:21:57.347Z,11.08
2019-02-08T02:22:20.168Z,10.38
2019-02-08T02:22:43.069Z,11.03
2019-02-08T02:23:05.929Z,10.80
2019-02-08T02:23:29.129Z,11.05
2019-02-08T02:23:56.204Z,11.55
2019-02-08T02:24:16.430Z,11.50
2019-02-08T02:24:39.270Z,11.43
2019-02-08T02:25:02.034Z,11.10
2019-02-08T02:25:24.909Z,10.95
2019-02-08T02:25:47.806Z,11.08
2019-02-08T02:26:10.728Z,11.60
2019-02-08T02:26:33.749Z,11.35
2019-02-08T02:26:57.089Z,11.20
2019-02-08T02:27:19.850Z,11.12
2019-02-08T02:27:42.849Z,11.20
2019-02-08T02:28:05.889Z,11.33
2019-02-08T02:28:28.735Z,11.20
2019-02-08T02:28:51.989Z,11.03
2019-02-08T02:29:14.849Z,11.10
2019-02-08T02:29:37.708Z,10.75
2019-02-08T02:30:01.079Z,11.20
2019-02-08T02:30:24.190Z,10.90
2019-02-08T02:30:47.380Z,10.93
2019-02-08T02:31:10.250Z,11.03
2019-02-08T02:31:33.548Z,10.68
2019-02-08T02:31:56.528Z,10.75
2019-02-08T02:32:19.472Z,10.70
2019-02-08T02:32:42.352Z,10.90
2019-02-08T02:33:07.154Z,10.78
2019-02-08T02:33:30.157Z,10.45
2019-02-08T02:33:53.409Z,10.03
2019-02-08T02:34:16.229Z,10.18
2019-02-08T02:34:38.948Z,10.48
2019-02-08T02:35:02.169Z,10.32
2019-02-08T02:35:25.011Z,9.88
2019-02-08T02:35:48.371Z,9.80
2019-02-08T02:36:11.188Z,9.85
2019-02-08T02:36:34.089Z,10.13
2019-02-08T02:36:57.214Z,9.88
2019-02-08T02:37:20.669Z,9.88
2019-02-08T02:37:43.448Z,10.05
2019-02-08T02:38:06.389Z,9.55
2019-02-08T02:38:29.394Z,9.88
2019-02-08T02:38:52.370Z,9.88
2019-02-08T02:39:15.209Z,9.60
2019-02-08T02:39:38.089Z,9.58
2019-02-08T02:40:01.008Z,9.53
2019-02-08T02:40:23.848Z,9.70
2019-02-08T02:40:46.726Z,9.35
2019-02-08T02:41:09.890Z,9.70
2019-02-08T02:41:32.728Z,9.93
2019-02-08T02:41:55.620Z,9.38
2019-02-08T02:42:18.629Z,9.63
2019-02-08T02:42:41.970Z,9.60
2019-02-08T02:43:04.829Z,10.20
2019-02-08T02:43:27.630Z,9.88
2019-02-08T02:43:50.490Z,10.08
2019-02-08T02:44:13.289Z,10.23
2019-02-08T02:44:36.230Z,10.25
2019-02-08T02:44:59.050Z,9.93
2019-02-08T02:45:21.969Z,9.15
2019-02-08T02:45:44.815Z,9.08
2019-02-08T02:46:07.610Z,9.80
2019-02-08T02:46:30.490Z,9.78
2019-02-08T02:46:53.356Z,9.90
2019-02-08T02:47:16.310Z,9.73
2019-02-08T02:47:39.209Z,9.40
2019-02-08T02:48:02.449Z,9.33
2019-02-08T02:48:25.332Z,9.53
2019-02-08T02:48:48.309Z,9.26
2019-02-08T02:49:11.648Z,9.15
2019-02-08T02:49:34.526Z,9.45
2019-02-08T02:49:57.888Z,9.28
2019-02-08T02:50:20.808Z,9.45
2019-02-08T02:50:43.750Z,9.40
2019-02-08T02:51:06.581Z,9.15
2019-02-08T02:51:29.649Z,9.12
2019-02-08T02:51:52.493Z,8.83
2019-02-08T02:52:15.347Z,9.05
2019-02-08T02:52:38.788Z,9.20
2019-02-08T02:53:01.523Z,9.30
2019-02-08T02:53:24.401Z,9.40
2019-02-08T02:53:47.369Z,9.23
2019-02-08T02:54:10.230Z,9.05
2019-02-08T02:54:34.011Z,8.98
2019-02-08T02:54:57.429Z,9.28
2019-02-08T02:55:20.419Z,9.05
2019-02-08T02:55:43.371Z,9.13
2019-02-08T02:56:06.210Z,9.20
2019-02-08T02:56:30.570Z,9.35
2019-02-08T02:56:53.429Z,9.05
2019-02-08T02:57:16.369Z,9.13
2019-02-08T02:57:39.215Z,9.30
2019-02-08T02:58:02.200Z,9.10
2019-02-08T02:58:25.010Z,9.33
2019-02-08T02:58:47.848Z,9.40
2019-02-08T02:59:10.663Z,9.05
2019-02-08T02:59:34.033Z,9.08
2019-02-08T02:59:57.009Z,9.15
2019-02-08T03:00:19.947Z,9.28
2019-02-08T03:00:42.719Z,8.78
2019-02-08T03:01:05.609Z,8.80
2019-02-08T03:01:28.491Z,8.95
2019-02-08T03:01:51.388Z,8.73
2019-02-08T03:02:14.248Z,8.80
2019-02-08T03:02:37.051Z,8.75
2019-02-08T03:02:59.972Z,8.53
2019-02-08T03:03:22.895Z,8.63
2019-02-08T03:03:45.970Z,8.38
2019-02-08T03:04:08.977Z,9.33
2019-02-08T03:04:31.829Z,9.03
2019-02-08T03:04:54.709Z,8.65
2019-02-08T03:05:17.807Z,9.05
2019-02-08T03:05:40.870Z,8.78
2019-02-08T03:06:03.648Z,8.93
2019-02-08T03:06:26.471Z,8.90
2019-02-08T03:06:49.428Z,8.85
2019-02-08T03:07:12.289Z,8.93
2019-02-08T03:07:35.129Z,8.68
2019-02-08T03:07:57.889Z,8.73
2019-02-08T03:08:20.689Z,8.20
2019-02-08T03:08:43.589Z,9.08
2019-02-08T03:09:07.009Z,9.28
2019-02-08T03:09:29.948Z,9.10
2019-02-08T03:09:53.089Z,8.98
2019-02-08T03:10:15.908Z,9.15
2019-02-08T03:10:38.768Z,8.78
2019-02-08T03:11:01.593Z,8.40
2019-02-08T03:11:24.471Z,8.00
2019-02-08T03:11:47.248Z,7.45
2019-02-08T03:12:10.589Z,7.45
2019-02-08T03:12:33.988Z,7.50
2019-02-08T03:12:56.910Z,7.20
2019-02-08T03:13:20.128Z,7.05
2019-02-08T03:13:43.008Z,7.22
2019-02-08T03:14:06.268Z,7.20
2019-02-08T03:14:29.572Z,7.70
2019-02-08T03:14:52.448Z,7.60
2019-02-08T03:15:15.688Z,7.42
2019-02-08T03:15:39.009Z,7.55
2019-02-08T03:16:03.310Z,7.20
2019-02-08T03:16:26.548Z,7.75
2019-02-08T03:16:49.448Z,8.18
2019-02-08T03:17:12.288Z,7.75
2019-02-08T03:17:35.549Z,7.87
2019-02-08T03:17:58.428Z,7.80
2019-02-08T03:18:21.628Z,7.72
2019-02-08T03:18:44.589Z,7.95
2019-02-08T03:19:07.369Z,7.65
2019-02-08T03:19:30.208Z,7.92
2019-02-08T03:19:53.135Z,7.60
2019-02-08T03:20:16.191Z,8.23
2019-02-08T03:20:39.489Z,8.20
2019-02-08T03:21:02.411Z,7.92
2019-02-08T03:21:25.348Z,8.28
2019-02-08T03:21:48.569Z,8.13
2019-02-08T03:22:11.409Z,8.10
2019-02-08T03:22:34.308Z,7.75
2019-02-08T03:22:57.168Z,7.60
2019-02-08T03:23:20.209Z,7.50
2019-02-08T03:23:43.049Z,7.10
2019-02-08T03:24:12.901Z,6.53
2019-02-08T03:24:31.308Z,7.00
2019-02-08T03:24:54.231Z,7.17
2019-02-08T03:25:17.289Z,6.95
2019-02-08T03:25:40.288Z,7.37
2019-02-08T03:26:03.044Z,7.58
2019-02-08T03:26:26.370Z,7.40
2019-02-08T03:26:49.109Z,7.03
2019-02-08T03:27:12.069Z,7.12
2019-02-08T03:27:34.787Z,7.60
2019-02-08T03:27:57.729Z,7.35
2019-02-08T03:28:20.908Z,7.30
2019-02-08T03:28:43.748Z,7.10
2019-02-08T03:29:06.575Z,7.17
2019-02-08T03:29:29.729Z,7.25
2019-02-08T03:29:53.882Z,7.05
2019-02-08T03:30:18.690Z,6.47
2019-02-08T03:30:52.396Z,6.58
2019-02-08T03:31:15.350Z,6.50
2019-02-08T03:31:38.170Z,6.55
2019-02-08T03:32:01.075Z,6.22
2019-02-08T03:32:23.965Z,6.35
2019-02-08T03:32:47.890Z,5.33
2019-02-08T03:33:10.814Z,5.67
2019-02-08T03:33:34.310Z,5.60
2019-02-08T03:33:57.133Z,5.60
2019-02-08T03:34:19.993Z,5.10
2019-02-08T03:34:42.950Z,5.33
2019-02-08T03:35:05.732Z,5.30
2019-02-08T03:35:28.558Z,5.35
2019-02-08T03:35:51.848Z,5.25
2019-02-08T03:36:14.808Z,4.47
2019-02-08T03:36:37.574Z,5.03
2019-02-08T03:37:00.368Z,5.33
2019-02-08T03:37:23.668Z,5.53
2019-02-08T03:37:46.409Z,5.55
2019-02-08T03:38:09.288Z,5.00
2019-02-08T03:38:32.408Z,5.00
2019-02-08T03:38:56.048Z,5.30
2019-02-08T03:39:18.988Z,5.50
2019-02-08T03:39:41.770Z,5.25
2019-02-08T03:40:04.648Z,4.80
2019-02-08T03:40:27.930Z,4.80
2019-02-08T03:40:50.810Z,4.65
2019-02-08T03:41:13.668Z,5.17
2019-02-08T03:41:36.570Z,5.00
2019-02-08T03:41:59.348Z,4.75
2019-02-08T03:42:22.210Z,4.80
2019-02-08T03:42:45.509Z,4.60
2019-02-08T03:43:08.930Z,4.58
2019-02-08T03:43:31.970Z,4.53
2019-02-08T03:43:54.851Z,4.60
2019-02-08T03:44:18.049Z,4.60
2019-02-08T03:44:40.969Z,4.75
2019-02-08T03:45:03.689Z,4.72
2019-02-08T03:45:28.130Z,4.55
2019-02-08T03:45:52.576Z,4.47
2019-02-08T03:46:15.633Z,4.67
2019-02-08T03:46:38.449Z,4.62
2019-02-08T03:47:01.369Z,4.60
2019-02-08T03:47:24.328Z,4.75
2019-02-08T03:47:47.288Z,4.70
2019-02-08T03:48:10.148Z,4.60
2019-02-08T03:48:33.028Z,4.60
2019-02-08T03:48:55.971Z,4.30
2019-02-08T03:49:18.929Z,4.22
2019-02-08T03:49:41.748Z,4.58
2019-02-08T03:50:04.589Z,4.80
2019-02-08T03:50:27.618Z,4.92
2019-02-08T03:50:50.431Z,4.50
2019-02-08T03:51:13.209Z,4.80
2019-02-08T03:51:36.029Z,4.72
2019-02-08T03:51:58.907Z,4.90
2019-02-08T03:52:22.330Z,4.45
2019-02-08T03:52:45.230Z,4.70
2019-02-08T03:53:08.069Z,4.60
2019-02-08T03:53:31.018Z,4.50
2019-02-08T03:53:54.048Z,4.33
2019-02-08T03:54:21.126Z,4.30
2019-02-08T03:54:41.295Z,4.12
2019-02-08T03:55:04.178Z,4.45
2019-02-08T03:55:27.088Z,4.20
2019-02-08T03:55:58.002Z,4.33
2019-02-08T03:56:14.929Z,4.40
2019-02-08T03:56:37.827Z,4.33
2019-02-08T03:57:00.669Z,4.05
2019-02-08T03:57:23.508Z,4.03
2019-02-08T03:57:46.250Z,4.50
2019-02-08T03:58:09.269Z,4.30
2019-02-08T03:58:32.197Z,4.40
2019-02-08T03:58:55.549Z,4.37
2019-02-08T03:59:18.510Z,4.45
2019-02-08T03:59:41.888Z,4.33
2019-02-08T04:00:04.811Z,4.17
2019-02-08T04:00:29.218Z,3.92
2019-02-08T04:01:02.800Z,3.90
2019-02-08T04:01:25.668Z,4.00
2019-02-08T04:01:48.552Z,4.20
2019-02-08T04:02:11.653Z,4.10
2019-02-08T04:02:34.648Z,4.15
2019-02-08T04:02:59.267Z,3.80
2019-02-08T04:03:22.131Z,3.80
2019-02-08T04:03:44.988Z,4.03
2019-02-08T04:04:08.448Z,3.85
2019-02-08T04:04:31.268Z,3.80
2019-02-08T04:04:54.070Z,4.00
2019-02-08T04:05:17.270Z,3.85
2019-02-08T04:05:40.229Z,3.80
2019-02-08T04:06:02.928Z,3.60
2019-02-08T04:06:25.768Z,3.75
2019-02-08T04:06:48.568Z,4.12
2019-02-08T04:07:11.467Z,4.20
2019-02-08T04:07:34.869Z,3.80
2019-02-08T04:07:57.870Z,3.90
2019-02-08T04:08:20.816Z,3.80
2019-02-08T04:08:43.630Z,3.72
2019-02-08T04:09:06.730Z,3.65
2019-02-08T04:09:29.628Z,3.75
2019-02-08T04:09:52.547Z,4.08
2019-02-08T04:10:15.449Z,3.95
2019-02-08T04:10:38.530Z,3.87
2019-02-08T04:11:01.373Z,3.77
2019-02-08T04:11:24.233Z,3.75
2019-02-08T04:11:47.148Z,3.98
2019-02-08T04:12:10.110Z,3.75
2019-02-08T04:12:33.028Z,3.90
2019-02-08T04:12:55.749Z,4.00
2019-02-08T04:13:18.707Z,3.85
2019-02-08T04:13:41.887Z,3.50
2019-02-08T04:14:04.868Z,3.67
2019-02-08T04:14:27.649Z,3.87
2019-02-08T04:14:50.770Z,3.42
2019-02-08T04:15:14.049Z,3.75
2019-02-08T04:15:37.029Z,3.80
2019-02-08T04:16:00.028Z,3.80
2019-02-08T04:16:22.928Z,3.75
2019-02-08T04:16:45.750Z,3.85
2019-02-08T04:17:08.608Z,3.90
2019-02-08T04:17:31.972Z,3.90
2019-02-08T04:17:55.048Z,3.87
2019-02-08T04:18:18.411Z,4.05
2019-02-08T04:18:42.587Z,3.83
2019-02-08T04:19:06.098Z,3.60
2019-02-08T04:19:29.090Z,3.70
2019-02-08T04:19:51.990Z,3.72
2019-02-08T04:20:14.849Z,3.72
2019-02-08T04:20:37.649Z,3.75
2019-02-08T04:21:00.553Z,3.80
2019-02-08T04:21:23.349Z,3.72
2019-02-08T04:21:46.228Z,3.75
2019-02-08T04:22:09.088Z,3.52
2019-02-08T04:22:31.969Z,3.35
2019-02-08T04:22:55.290Z,3.60
2019-02-08T04:23:18.128Z,3.60
2019-02-08T04:23:41.368Z,3.50
2019-02-08T04:24:04.130Z,3.47
2019-02-08T04:24:29.867Z,3.70
2019-02-08T04:24:51.650Z,3.75
2019-02-08T04:25:14.428Z,3.80
2019-02-08T04:25:37.267Z,3.50
2019-02-08T04:26:00.768Z,3.30
2019-02-08T04:26:24.128Z,3.22
2019-02-08T04:26:47.528Z,3.10
2019-02-08T04:27:10.467Z,3.15
2019-02-08T04:27:33.208Z,3.20
2019-02-08T04:27:56.148Z,3.00
2019-02-08T04:28:19.508Z,3.25
2019-02-08T04:28:42.350Z,3.15
2019-02-08T04:29:05.169Z,2.90
2019-02-08T04:29:28.067Z,3.10
2019-02-08T04:29:50.928Z,2.90
2019-02-08T04:30:13.827Z,2.70
2019-02-08T04:30:36.851Z,2.80
2019-02-08T04:30:59.752Z,2.80
2019-02-08T04:31:22.690Z,3.08
2019-02-08T04:31:45.648Z,2.80
2019-02-08T04:32:08.769Z,2.90
2019-02-08T04:32:32.130Z,2.80
2019-02-08T04:32:55.149Z,2.70
2019-02-08T04:33:18.072Z,2.58
2019-02-08T04:33:41.309Z,2.55
2019-02-08T04:34:04.128Z,2.60
2019-02-08T04:34:27.331Z,2.80
2019-02-08T04:34:50.148Z,2.65
2019-02-08T04:35:12.950Z,2.70
2019-02-08T04:35:35.828Z,2.92
2019-02-08T04:35:58.591Z,2.83
2019-02-08T04:36:21.356Z,2.80
2019-02-08T04:36:44.608Z,2.70
2019-02-08T04:37:08.069Z,2.90
2019-02-08T04:37:30.947Z,2.90
2019-02-08T04:37:53.630Z,2.77
2019-02-08T04:38:16.488Z,2.77
2019-02-08T04:38:39.788Z,2.80
2019-02-08T04:39:02.612Z,2.65
2019-02-08T04:39:25.906Z,2.75
2019-02-08T04:39:48.888Z,2.58
2019-02-08T04:40:11.893Z,2.50
2019-02-08T04:40:34.790Z,2.67
2019-02-08T04:40:58.031Z,2.60
2019-02-08T04:41:20.930Z,3.00
2019-02-08T04:41:44.290Z,3.10
2019-02-08T04:42:07.278Z,2.98
2019-02-08T04:42:30.155Z,2.75
2019-02-08T04:42:52.991Z,2.55
2019-02-08T04:43:15.890Z,2.67
2019-02-08T04:43:38.715Z,2.65
2019-02-08T04:44:01.593Z,2.55
2019-02-08T04:44:24.489Z,2.60
2019-02-08T04:44:47.467Z,2.70
2019-02-08T04:45:10.367Z,2.85
2019-02-08T04:45:33.668Z,2.83
2019-02-08T04:45:56.510Z,3.08
2019-02-08T04:46:19.247Z,3.02
2019-02-08T04:46:42.107Z,2.98
2019-02-08T04:47:05.408Z,2.60
2019-02-08T04:47:28.330Z,2.80
2019-02-08T04:47:51.287Z,2.60
2019-02-08T04:48:14.208Z,2.75
2019-02-08T04:48:36.968Z,2.77
2019-02-08T04:48:59.848Z,2.60
2019-02-08T04:49:22.648Z,2.62
2019-02-08T04:49:45.829Z,2.33
2019-02-08T04:50:08.708Z,2.50
2019-02-08T04:50:31.583Z,2.77
2019-02-08T04:50:54.348Z,2.98
2019-02-08T04:51:17.990Z,2.75
2019-02-08T04:51:40.888Z,2.50
2019-02-08T04:52:03.607Z,2.50
2019-02-08T04:52:26.490Z,2.40
2019-02-08T04:52:49.708Z,2.50
2019-02-08T04:53:13.189Z,2.62
2019-02-08T04:53:36.071Z,2.70
2019-02-08T04:53:58.910Z,2.60
2019-02-08T04:54:21.810Z,2.85
2019-02-08T04:54:44.715Z,3.00
2019-02-08T04:55:07.528Z,2.95
2019-02-08T04:55:30.331Z,2.70
2019-02-08T04:55:53.110Z,2.70
2019-02-08T04:56:16.068Z,2.75
2019-02-08T04:56:39.049Z,2.87
2019-02-08T04:57:01.941Z,2.95
2019-02-08T04:57:24.849Z,2.80
2019-02-08T04:57:48.131Z,2.80
2019-02-08T04:58:11.048Z,2.95
2019-02-08T04:58:35.635Z,2.90
2019-02-08T04:58:58.887Z,2.90
2019-02-08T04:59:21.689Z,2.80
2019-02-08T04:59:44.469Z,2.87
2019-02-08T05:00:07.488Z,2.80
2019-02-08T05:00:30.490Z,2.85
2019-02-08T05:00:53.351Z,2.90
2019-02-08T05:01:16.208Z,2.50
2019-02-08T05:01:39.457Z,3.00
2019-02-08T05:02:02.990Z,2.85
2019-02-08T05:02:26.368Z,3.00
2019-02-08T05:02:49.150Z,2.72
2019-02-08T05:03:12.130Z,2.50
2019-02-08T05:03:35.068Z,2.80
2019-02-08T05:03:58.049Z,2.80
2019-02-08T05:04:20.989Z,2.90
2019-02-08T05:04:43.888Z,2.90
2019-02-08T05:05:06.750Z,2.75
2019-02-08T05:05:29.731Z,2.80